Terminal Aerodrome Forecast
Issued by NWS

Home | Current Version | Previous Version | Text Only | Print | Product List | Glossary On
Versions: 1 2 3 4 5 6 7 8 9 10 11 12 13 14 15 16 17 18 19 20 21 22 23 24 25 26 27 28 29 30 31
291
FTUS43 KDTX 301121
TAFPTK
TAF
KPTK 301121Z 3012/0112 09014KT P6SM OVC025
     FM301400 08012KT 5SM -RA BR OVC008
     FM302000 10010KT 5SM -SHRA SCT008 OVC014
      TEMPO 3021/3024 3SM RA BR OVC012
     FM010100 12009KT 2SM SHRA BR OVC008=

USA.gov is the U.S. government's official web portal to all federal, state and local government web resources and services.